Magic Kingdom, Florida
Current Conditions -  °F | °C
As of 1:50 PM on Monday 20 Oct 2014 (Local Time) from KISM Reporting Station
Few Clouds Few Clouds  
Wind Chill: 82°   Ceiling: Unl
Heat Index: 82°   Visibility: 10mi
Dew Point: 54°   Wind: 6mph
Humidity: 37%   Direction: 160°SSE
Pressure: 30.01"   Gusts: NA
Location:  28.42°N, 81.58°W
Report Text: KISM 201750Z 16005KT 10SM FEW040 28/12 A3001
Loading
Personal Weather Stations






























Interactive Weather Map
Tropical Storm Tracking
New forecast layout! Learn more

10-Day Weather Forecast

Advertisements
Track Severe Weather on mobile